Time;durP1;ratioP1;P1;durP2;ratioP2;P2;SDS_P1;SDS_P2;PMS_P1;PMS_P2;Temp;Humidity;BMP_temperature;BMP_pressure;BME280_temperature;BME280_humidity;BME280_pressure;Samples;Min_cycle;Max_cycle;Signal;HPM_P1;HPM_P2
2024/04/06 00:02:20;;;;;;;13.45;3.60;;;;;;;;;;4996046;28;20682;-69
2024/04/06 00:04:48;;;;;;;12.02;3.58;;;;;;;;;;4977114;28;20040;-68
2024/04/06 00:07:16;;;;;;;14.82;3.85;;;;;;;;;;5001338;28;20090;-68
2024/04/06 00:09:45;;;;;;;13.10;4.07;;;;;;;;;;4997305;28;20045;-68
2024/04/06 00:12:14;;;;;;;13.60;3.47;;;;;;;;;;4997041;28;20442;-68
2024/04/06 00:14:42;;;;;;;14.45;3.90;;;;;;;;;;4979653;28;20068;-68
2024/04/06 00:17:11;;;;;;;12.38;3.72;;;;;;;;;;5000838;28;21000;-68
2024/04/06 00:19:38;;;;;;;13.20;3.53;;;;;;;;;;4996138;28;20120;-68
2024/04/06 00:22:05;;;;;;;11.60;3.55;;;;;;;;;;4999710;28;20029;-67
2024/04/06 00:24:33;;;;;;;16.23;4.30;;;;;;;;;;4978148;28;20037;-66
2024/04/06 00:27:01;;;;;;;12.30;3.45;;;;;;;;;;5002114;28;20026;-68
2024/04/06 00:29:28;;;;;;;15.73;4.00;;;;;;;;;;5000298;28;20044;-67
2024/04/06 00:31:55;;;;;;;13.70;3.90;;;;;;;;;;4997513;28;20037;-67
2024/04/06 00:34:23;;;;;;;15.82;3.80;;;;;;;;;;4981138;28;20045;-67
2024/04/06 00:36:50;;;;;;;13.88;4.18;;;;;;;;;;4996289;28;20036;-68
2024/04/06 00:39:18;;;;;;;12.93;3.53;;;;;;;;;;5001622;28;20072;-67
2024/04/06 00:41:45;;;;;;;11.38;3.20;;;;;;;;;;4998061;28;20819;-67
2024/04/06 00:44:14;;;;;;;14.23;3.42;;;;;;;;;;4982983;28;20029;-67
2024/04/06 00:46:41;;;;;;;20.55;3.80;;;;;;;;;;4975085;28;20036;-68
2024/04/06 00:49:09;;;;;;;10.10;3.15;;;;;;;;;;4997218;28;20191;-68
2024/04/06 00:51:36;;;;;;;12.43;3.08;;;;;;;;;;4991738;28;20041;-67
2024/04/06 00:54:05;;;;;;;12.43;3.38;;;;;;;;;;4982543;28;20033;-67
2024/04/06 00:56:32;;;;;;;15.98;3.60;;;;;;;;;;4998194;28;20037;-67
2024/04/06 00:59:00;;;;;;;11.43;3.15;;;;;;;;;;4999531;28;20041;-67
2024/04/06 01:01:27;;;;;;;11.60;3.45;;;;;;;;;;4999300;28;20036;-67
2024/04/06 01:03:55;;;;;;;13.82;3.15;;;;;;;;;;4977568;28;20040;-67
2024/04/06 01:06:22;;;;;;;13.27;3.50;;;;;;;;;;5002412;28;20140;-68
2024/04/06 01:08:50;;;;;;;13.50;3.30;;;;;;;;;;4983862;28;20049;-68
2024/04/06 01:11:18;;;;;;;12.85;3.13;;;;;;;;;;5004282;28;20037;-69
2024/04/06 01:13:46;;;;;;;11.75;3.25;;;;;;;;;;5000360;28;20030;-68
2024/04/06 01:16:14;;;;;;;13.70;3.50;;;;;;;;;;5003367;28;20026;-68
2024/04/06 01:18:41;;;;;;;10.85;3.15;;;;;;;;;;4999917;28;20040;-68
2024/04/06 01:21:08;;;;;;;10.38;3.05;;;;;;;;;;5003993;28;20844;-69
2024/04/06 01:23:36;;;;;;;11.48;3.25;;;;;;;;;;4982025;28;20046;-69
2024/04/06 01:26:03;;;;;;;15.38;3.20;;;;;;;;;;4986456;28;20044;-69
2024/04/06 01:28:31;;;;;;;10.70;2.92;;;;;;;;;;4982128;28;20037;-68
2024/04/06 01:30:58;;;;;;;13.85;3.40;;;;;;;;;;5003268;28;20033;-69
2024/04/06 01:33:26;;;;;;;14.88;3.35;;;;;;;;;;5018560;28;20156;-69
2024/04/06 01:35:54;;;;;;;19.63;3.55;;;;;;;;;;4999135;28;20117;-69
2024/04/06 01:38:22;;;;;;;11.60;3.15;;;;;;;;;;5003377;28;20109;-68
2024/04/06 01:40:51;;;;;;;14.88;3.22;;;;;;;;;;5000255;28;20930;-69
2024/04/06 01:43:20;;;;;;;12.95;3.20;;;;;;;;;;5002932;28;20139;-69
2024/04/06 01:45:47;;;;;;;16.90;3.30;;;;;;;;;;4998511;28;20040;-69
2024/04/06 01:48:16;;;;;;;13.10;3.30;;;;;;;;;;4985764;28;20034;-69
2024/04/06 01:50:45;;;;;;;18.05;3.58;;;;;;;;;;4995555;28;20068;-69
2024/04/06 01:53:12;;;;;;;11.45;2.75;;;;;;;;;;5018002;28;20049;-68
2024/04/06 01:55:40;;;;;;;11.95;2.67;;;;;;;;;;4999128;28;20096;-68
2024/04/06 01:58:07;;;;;;;12.45;2.80;;;;;;;;;;5001303;28;20029;-68
2024/04/06 02:00:36;;;;;;;11.00;3.22;;;;;;;;;;4980988;28;20411;-69
2024/04/06 02:03:04;;;;;;;13.32;3.33;;;;;;;;;;5003632;28;20033;-68
2024/04/06 02:05:30;;;;;;;13.90;2.80;;;;;;;;;;5014715;28;20120;-68
2024/04/06 02:07:59;;;;;;;10.98;2.50;;;;;;;;;;5003813;28;20502;-68
2024/04/06 02:10:26;;;;;;;12.45;2.90;;;;;;;;;;4996340;28;20601;-66
2024/04/06 02:12:54;;;;;;;12.75;3.17;;;;;;;;;;5013094;28;20048;-67
2024/04/06 02:15:22;;;;;;;11.63;2.67;;;;;;;;;;5002678;28;20167;-67
2024/04/06 02:17:50;;;;;;;10.85;2.97;;;;;;;;;;4997583;28;20033;-67
2024/04/06 02:20:18;;;;;;;14.23;3.50;;;;;;;;;;5002173;28;20033;-67
2024/04/06 02:22:47;;;;;;;13.25;3.55;;;;;;;;;;4981608;28;20029;-67
2024/04/06 02:25:14;;;;;;;11.23;3.25;;;;;;;;;;4983966;28;20033;-67
2024/04/06 02:27:41;;;;;;;11.93;3.30;;;;;;;;;;4997867;28;20146;-69
2024/04/06 02:30:10;;;;;;;14.30;3.60;;;;;;;;;;4983916;28;20033;-68
2024/04/06 02:32:38;;;;;;;15.70;3.67;;;;;;;;;;4999049;28;20061;-68
2024/04/06 02:35:06;;;;;;;10.85;3.67;;;;;;;;;;5002970;28;20164;-67
2024/04/06 02:37:34;;;;;;;11.88;3.47;;;;;;;;;;4981600;28;20044;-67
2024/04/06 02:40:02;;;;;;;14.10;3.67;;;;;;;;;;4984159;28;20030;-67
2024/04/06 02:42:29;;;;;;;15.32;3.88;;;;;;;;;;4999748;28;20033;-68
2024/04/06 02:44:57;;;;;;;16.70;3.80;;;;;;;;;;4979373;28;20029;-69
2024/04/06 02:47:24;;;;;;;11.05;3.70;;;;;;;;;;5000791;28;20071;-69
2024/04/06 02:49:52;;;;;;;13.70;3.83;;;;;;;;;;4979378;28;20045;-69
2024/04/06 02:52:19;;;;;;;16.15;3.70;;;;;;;;;;4983719;28;20186;-68
2024/04/06 02:54:45;;;;;;;14.77;3.70;;;;;;;;;;4998277;28;20034;-68
2024/04/06 02:57:13;;;;;;;;;;;;;;;;;;5003746;28;20033;-66
2024/04/06 02:59:41;;;;;;;15.35;3.80;;;;;;;;;;4979670;28;20004;-70
2024/04/06 03:02:09;;;;;;;17.20;3.60;;;;;;;;;;4983364;28;20061;-69
2024/04/06 03:04:37;;;;;;;12.85;3.40;;;;;;;;;;4980774;28;20198;-69
2024/04/06 03:07:05;;;;;;;13.65;3.38;;;;;;;;;;4983466;28;20037;-69
2024/04/06 03:09:35;;;;;;;12.13;3.40;;;;;;;;;;5012317;28;20052;-68
2024/04/06 03:12:04;;;;;;;12.48;3.03;;;;;;;;;;5002440;28;20795;-68
2024/04/06 03:14:32;;;;;;;13.85;3.28;;;;;;;;;;4998703;28;20492;-69
2024/04/06 03:17:00;;;;;;;14.65;2.95;;;;;;;;;;5014725;28;20042;-69
2024/04/06 03:19:27;;;;;;;14.55;3.45;;;;;;;;;;4984870;28;20026;-69
2024/04/06 03:21:54;;;;;;;15.88;2.90;;;;;;;;;;4993661;28;20422;-68
2024/04/06 03:24:22;;;;;;;17.48;3.25;;;;;;;;;;5002356;28;20543;-67
2024/04/06 03:26:50;;;;;;;14.40;3.03;;;;;;;;;;4998383;28;20026;-68
2024/04/06 03:29:19;;;;;;;13.23;3.13;;;;;;;;;;5001977;28;20033;-68
2024/04/06 03:31:51;;;;;;;13.55;3.35;;;;;;;;;;4997559;28;20037;-68
2024/04/06 03:34:22;;;;;;;11.95;2.90;;;;;;;;;;4982952;28;20044;-67
2024/04/06 03:36:48;;;;;;;14.25;2.95;;;;;;;;;;4997845;28;20025;-69
2024/04/06 03:39:17;;;;;;;12.57;3.13;;;;;;;;;;5003294;28;20037;-69
2024/04/06 03:41:43;;;;;;;12.00;2.50;;;;;;;;;;4997540;28;20115;-68
2024/04/06 03:44:09;;;;;;;10.68;2.72;;;;;;;;;;5001886;28;20072;-68
2024/04/06 03:46:36;;;;;;;;;;;;;;;;;;4998389;28;20041;-68
2024/04/06 03:49:03;;;;;;;;;;;;;;;;;;5000110;28;19979;-68
2024/04/06 03:51:31;;;;;;;13.02;2.90;;;;;;;;;;4999486;28;20533;-68
2024/04/06 03:53:57;;;;;;;13.88;3.00;;;;;;;;;;5001416;28;20055;-68
2024/04/06 03:56:24;;;;;;;;;;;;;;;;;;5001445;28;20025;-68
2024/04/06 03:58:52;;;;;;;11.05;3.00;;;;;;;;;;4978916;28;19921;-68
2024/04/06 04:01:20;;;;;;;12.35;3.10;;;;;;;;;;5001835;28;20056;-68
2024/04/06 04:03:47;;;;;;;12.55;3.20;;;;;;;;;;4976419;28;20039;-68
2024/04/06 04:06:16;;;;;;;12.85;3.05;;;;;;;;;;4997136;28;20029;-68
2024/04/06 04:08:44;;;;;;;11.05;3.00;;;;;;;;;;4996312;28;20658;-68
2024/04/06 04:11:11;;;;;;;13.23;3.15;;;;;;;;;;4999783;28;20106;-68
2024/04/06 04:13:37;;;;;;;13.30;3.25;;;;;;;;;;4996912;28;20033;-67
2024/04/06 04:16:03;;;;;;;;;;;;;;;;;;5000219;28;20486;-68
2024/04/06 04:18:31;;;;;;;13.18;3.28;;;;;;;;;;4999075;28;19913;-68
2024/04/06 04:20:58;;;;;;;10.15;2.72;;;;;;;;;;4977964;28;20030;-67
2024/04/06 04:23:27;;;;;;;12.48;2.88;;;;;;;;;;4999448;28;20057;-69
2024/04/06 04:25:53;;;;;;;13.40;3.33;;;;;;;;;;4997865;28;20767;-69
2024/04/06 04:28:20;;;;;;;13.80;3.33;;;;;;;;;;5002165;28;20060;-67
2024/04/06 04:30:48;;;;;;;11.23;3.10;;;;;;;;;;4997507;28;20076;-66
2024/04/06 04:33:17;;;;;;;10.60;3.20;;;;;;;;;;5000405;28;20036;-67
2024/04/06 04:35:45;;;;;;;13.35;3.20;;;;;;;;;;4995229;28;20034;-69
2024/04/06 04:38:12;;;;;;;10.63;3.00;;;;;;;;;;4982029;28;20029;-68
2024/04/06 04:40:41;;;;;;;12.25;3.15;;;;;;;;;;4980716;28;20037;-68
2024/04/06 04:43:07;;;;;;;14.65;3.60;;;;;;;;;;4998805;28;20025;-68
2024/04/06 04:45:33;;;;;;;;;;;;;;;;;;5000895;28;20055;-68
2024/04/06 04:48:02;;;;;;;12.45;3.22;;;;;;;;;;4985354;28;19970;-67
2024/04/06 04:50:28;;;;;;;13.98;3.13;;;;;;;;;;5001332;28;20029;-70
2024/04/06 04:53:01;;;;;;;11.18;3.50;;;;;;;;;;5002582;28;20598;-68
2024/04/06 04:55:38;;;;;;;9.88;2.92;;;;;;;;;;5001425;28;20461;-69
2024/04/06 04:58:04;;;;;;;12.45;3.08;;;;;;;;;;5003865;28;20091;-68
2024/04/06 05:00:32;;;;;;;;;;;;;;;;;;4999629;28;20084;-68
2024/04/06 05:02:59;;;;;;;9.93;2.47;;;;;;;;;;4986812;28;19917;-68
2024/04/06 05:05:25;;;;;;;9.75;2.58;;;;;;;;;;4986538;28;20037;-68
2024/04/06 05:07:53;;;;;;;;;;;;;;;;;;4982471;28;20037;-68
2024/04/06 05:10:20;;;;;;;12.52;2.60;;;;;;;;;;4987183;28;20493;-68
2024/04/06 05:12:47;;;;;;;8.75;2.40;;;;;;;;;;4998618;28;20044;-69
2024/04/06 05:15:14;;;;;;;;;;;;;;;;;;4985988;28;20037;-68
2024/04/06 05:17:41;;;;;;;;;;;;;;;;;;5000945;28;19913;-68
2024/04/06 05:20:08;;;;;;;11.23;2.42;;;;;;;;;;4987136;28;19913;-69
2024/04/06 05:22:35;;;;;;;14.13;2.75;;;;;;;;;;5001577;28;20087;-69
2024/04/06 05:25:01;;;;;;;10.38;2.17;;;;;;;;;;4992475;28;20696;-69
2024/04/06 05:27:28;;;;;;;10.45;2.60;;;;;;;;;;4988262;28;20030;-68
2024/04/06 05:29:55;;;;;;;12.48;2.63;;;;;;;;;;4986807;28;20042;-68
2024/04/06 05:32:23;;;;;;;;;;;;;;;;;;4986130;28;20650;-70
2024/04/06 05:34:53;;;;;;;13.45;3.00;;;;;;;;;;4988251;28;19940;-68
2024/04/06 05:37:20;;;;;;;14.40;3.78;;;;;;;;;;4990662;28;20582;-68
2024/04/06 05:39:48;;;;;;;15.13;4.00;;;;;;;;;;4988850;28;20021;-70
2024/04/06 05:42:17;;;;;;;11.48;3.25;;;;;;;;;;5021420;28;20052;-67
2024/04/06 05:44:45;;;;;;;12.18;3.63;;;;;;;;;;4986248;28;20475;-68
2024/04/06 05:47:15;;;;;;;11.77;3.28;;;;;;;;;;4987750;28;20042;-68
2024/04/06 05:49:44;;;;;;;13.52;3.50;;;;;;;;;;4984589;28;20658;-68
2024/04/06 05:52:13;;;;;;;13.63;3.90;;;;;;;;;;4982142;28;20510;-68
2024/04/06 05:54:41;;;;;;;12.68;4.05;;;;;;;;;;4981921;28;20023;-67
2024/04/06 05:57:07;;;;;;;11.90;4.07;;;;;;;;;;4984780;28;20081;-67
2024/04/06 05:59:33;;;;;;;;;;;;;;;;;;4982867;28;20117;-67
2024/04/06 06:01:59;;;;;;;15.70;3.92;;;;;;;;;;4986484;28;19971;-67
2024/04/06 06:04:26;;;;;;;;;;;;;;;;;;4969585;28;20037;-67
2024/04/06 06:06:54;;;;;;;11.90;3.80;;;;;;;;;;4974393;28;19959;-68
2024/04/06 06:09:22;;;;;;;13.45;3.80;;;;;;;;;;4987118;28;20044;-67
2024/04/06 06:11:50;;;;;;;12.00;4.35;;;;;;;;;;4985284;28;20147;-70
2024/04/06 06:14:17;;;;;;;12.85;3.90;;;;;;;;;;4987896;28;20155;-69
2024/04/06 06:16:45;;;;;;;13.70;4.20;;;;;;;;;;4980235;28;20532;-70
2024/04/06 06:19:11;;;;;;;11.68;3.83;;;;;;;;;;4987646;28;20103;-67
2024/04/06 06:21:39;;;;;;;;;;;;;;;;;;4982948;28;20046;-68
2024/04/06 06:24:06;;;;;;;14.95;3.88;;;;;;;;;;4991900;28;19921;-69
2024/04/06 06:26:32;;;;;;;12.57;3.80;;;;;;;;;;4980056;28;20037;-68
2024/04/06 06:29:00;;;;;;;;;;;;;;;;;;4982495;28;20029;-68
2024/04/06 06:31:26;;;;;;;11.48;3.45;;;;;;;;;;4983858;28;20012;-67
2024/04/06 06:33:56;;;;;;;13.60;3.38;;;;;;;;;;4979366;28;20032;-69
2024/04/06 06:36:32;;;;;;;13.65;3.60;;;;;;;;;;4994997;28;20033;-68
2024/04/06 06:38:58;;;;;;;11.60;3.67;;;;;;;;;;5001004;28;20041;-68
2024/04/06 06:41:25;;;;;;;;;;;;;;;;;;5002307;28;20095;-68
2024/04/06 06:43:53;;;;;;;12.85;4.05;;;;;;;;;;4997360;28;19987;-68
2024/04/06 06:46:21;;;;;;;12.15;4.07;;;;;;;;;;5001843;28;20041;-68
2024/04/06 06:48:48;;;;;;;12.82;3.78;;;;;;;;;;4998438;28;20025;-67
2024/04/06 06:51:15;;;;;;;13.43;3.67;;;;;;;;;;4983303;28;20041;-68
2024/04/06 06:53:42;;;;;;;14.10;4.18;;;;;;;;;;4979730;28;20028;-68
2024/04/06 06:56:08;;;;;;;13.02;4.18;;;;;;;;;;4983110;28;20051;-67
2024/04/06 06:58:36;;;;;;;15.68;3.67;;;;;;;;;;4980610;28;20033;-67
2024/04/06 07:01:04;;;;;;;14.57;3.75;;;;;;;;;;4982340;28;20037;-68
2024/04/06 07:03:32;;;;;;;14.15;3.70;;;;;;;;;;4999525;28;20030;-67
2024/04/06 07:05:59;;;;;;;16.00;3.63;;;;;;;;;;4983573;28;20033;-68
2024/04/06 07:08:26;;;;;;;13.85;4.40;;;;;;;;;;4982878;28;20038;-67
2024/04/06 07:10:54;;;;;;;17.65;4.10;;;;;;;;;;4981226;28;20065;-70
2024/04/06 07:13:22;;;;;;;15.45;3.65;;;;;;;;;;5003899;28;20041;-67
2024/04/06 07:15:49;;;;;;;13.85;4.18;;;;;;;;;;4980466;28;20794;-71
2024/04/06 07:18:18;;;;;;;12.52;3.90;;;;;;;;;;4984155;28;20524;-70
2024/04/06 07:20:48;;;;;;;12.63;3.60;;;;;;;;;;4979946;28;20030;-69
2024/04/06 07:23:16;;;;;;;14.20;3.92;;;;;;;;;;5001649;28;20080;-68
2024/04/06 07:25:42;;;;;;;14.38;3.80;;;;;;;;;;5000017;28;20811;-68
2024/04/06 07:28:08;;;;;;;13.93;4.40;;;;;;;;;;4983400;28;20205;-68
2024/04/06 07:30:35;;;;;;;17.60;4.20;;;;;;;;;;4998229;28;20209;-68
2024/04/06 07:33:01;;;;;;;14.15;3.60;;;;;;;;;;4984046;28;20041;-67
2024/04/06 07:35:29;;;;;;;11.57;4.03;;;;;;;;;;4978720;28;20467;-67
2024/04/06 07:37:59;;;;;;;14.98;3.70;;;;;;;;;;4997834;28;20118;-67
2024/04/06 07:40:28;;;;;;;13.82;3.78;;;;;;;;;;5003299;28;20040;-69
2024/04/06 07:42:56;;;;;;;15.43;4.05;;;;;;;;;;4999574;28;20488;-69
2024/04/06 07:45:23;;;;;;;13.93;4.10;;;;;;;;;;5001750;28;20037;-69
2024/04/06 07:47:52;;;;;;;17.17;4.10;;;;;;;;;;4996605;28;22554;-68
2024/04/06 07:50:20;;;;;;;14.43;3.55;;;;;;;;;;4981627;28;20511;-69
2024/04/06 07:52:49;;;;;;;15.75;3.70;;;;;;;;;;4998090;28;20060;-68
2024/04/06 07:55:15;;;;;;;21.02;3.90;;;;;;;;;;5001804;28;20033;-68
2024/04/06 07:57:43;;;;;;;14.18;3.28;;;;;;;;;;4997250;28;20022;-67
2024/04/06 08:00:14;;;;;;;13.23;3.50;;;;;;;;;;4999945;28;20037;-67
2024/04/06 08:02:43;;;;;;;15.45;3.53;;;;;;;;;;4977971;28;20123;-67
2024/04/06 08:05:12;;;;;;;14.95;3.95;;;;;;;;;;4999695;28;20072;-68
2024/04/06 08:07:41;;;;;;;17.63;4.00;;;;;;;;;;4994834;28;20028;-67
2024/04/06 08:10:15;;;;;;;18.10;3.88;;;;;;;;;;5001867;28;20155;-66
2024/04/06 08:12:46;;;;;;;17.67;4.05;;;;;;;;;;4997195;28;20391;-67
2024/04/06 08:15:13;;;;;;;16.25;3.78;;;;;;;;;;5000614;28;20068;-67
2024/04/06 08:17:42;;;;;;;18.17;4.30;;;;;;;;;;4977897;28;20048;-67
2024/04/06 08:20:08;;;;;;;14.15;3.63;;;;;;;;;;5000599;28;20128;-66
2024/04/06 08:22:35;;;;;;;13.05;3.35;;;;;;;;;;4997199;28;20053;-67
2024/04/06 08:25:07;;;;;;;21.55;4.05;;;;;;;;;;4982123;28;20475;-70
2024/04/06 08:27:36;;;;;;;12.85;3.10;;;;;;;;;;4997778;28;20037;-66
2024/04/06 08:30:04;;;;;;;12.20;3.25;;;;;;;;;;4978800;28;20057;-69
2024/04/06 08:32:33;;;;;;;17.33;4.03;;;;;;;;;;4998410;28;20484;-67
2024/04/06 08:35:01;;;;;;;15.25;3.80;;;;;;;;;;4998855;28;20457;-67
2024/04/06 08:37:29;;;;;;;17.23;4.28;;;;;;;;;;4983241;28;20665;-68
2024/04/06 08:39:56;;;;;;;19.83;5.05;;;;;;;;;;4998927;28;20026;-70
2024/04/06 08:42:23;;;;;;;21.33;4.82;;;;;;;;;;4996734;28;20014;-67
2024/04/06 08:44:50;;;;;;;18.00;4.13;;;;;;;;;;4979230;28;20087;-68
2024/04/06 08:47:32;;;;;;;19.52;4.32;;;;;;;;;;4999993;28;20029;-67
2024/04/06 08:49:59;;;;;;;22.90;4.45;;;;;;;;;;5000066;28;20047;-66
2024/04/06 08:52:25;;;;;;;22.05;3.95;;;;;;;;;;4983667;28;20673;-66
2024/04/06 08:54:53;;;;;;;21.90;4.03;;;;;;;;;;4980093;28;20450;-68
2024/04/06 08:57:20;;;;;;;20.30;4.00;;;;;;;;;;4982646;28;20033;-67
2024/04/06 08:59:48;;;;;;;19.67;3.97;;;;;;;;;;4995805;28;20275;-68
2024/04/06 09:02:16;;;;;;;22.83;4.53;;;;;;;;;;5000708;28;20040;-69
2024/04/06 09:04:42;;;;;;;20.10;5.00;;;;;;;;;;4998802;28;20025;-67
2024/04/06 09:07:10;;;;;;;19.60;5.78;;;;;;;;;;5000720;28;20525;-68
2024/04/06 09:09:37;;;;;;;24.08;10.40;;;;;;;;;;4996601;28;20038;-67
2024/04/06 09:12:04;;;;;;;31.70;15.35;;;;;;;;;;4999054;28;20471;-66
2024/04/06 09:14:32;;;;;;;64.38;35.78;;;;;;;;;;4998738;28;20072;-69
2024/04/06 09:17:00;;;;;;;75.72;43.58;;;;;;;;;;4982190;28;20030;-68
2024/04/06 09:19:27;;;;;;;71.47;36.83;;;;;;;;;;4981818;28;20140;-66
2024/04/06 09:21:56;;;;;;;49.65;25.40;;;;;;;;;;4977314;28;20041;-68
2024/04/06 09:24:30;;;;;;;45.08;20.38;;;;;;;;;;5000140;28;20049;-66
2024/04/06 09:27:10;;;;;;;26.50;13.68;;;;;;;;;;5002507;28;20353;-66
2024/04/06 09:29:38;;;;;;;20.42;8.77;;;;;;;;;;5000466;28;20495;-66
2024/04/06 09:32:10;;;;;;;20.02;6.40;;;;;;;;;;4986999;28;20404;-67
2024/04/06 09:34:43;;;;;;;17.35;5.25;;;;;;;;;;5013635;28;20038;-67
2024/04/06 09:37:11;;;;;;;27.52;9.82;;;;;;;;;;5002788;28;20507;-68
2024/04/06 09:39:39;;;;;;;33.30;11.80;;;;;;;;;;5000060;28;20659;-67
2024/04/06 09:42:05;;;;;;;26.40;10.82;;;;;;;;;;4982053;28;20167;-66
2024/04/06 09:44:33;;;;;;;30.60;10.70;;;;;;;;;;4982671;28;20558;-67
2024/04/06 09:47:01;;;;;;;26.25;10.73;;;;;;;;;;4985094;28;20124;-67
2024/04/06 09:49:29;;;;;;;26.40;9.38;;;;;;;;;;5004475;28;20028;-67
2024/04/06 09:51:55;;;;;;;23.35;9.30;;;;;;;;;;5002593;28;20037;-67
2024/04/06 09:54:23;;;;;;;23.40;8.52;;;;;;;;;;4985124;28;20045;-66
2024/04/06 09:56:51;;;;;;;26.17;9.52;;;;;;;;;;4982285;28;22550;-67
2024/04/06 09:59:36;;;;;;;29.60;9.95;;;;;;;;;;5003065;28;20034;-67
2024/04/06 10:02:03;;;;;;;27.23;8.55;;;;;;;;;;5000520;28;20167;-66
2024/04/06 10:04:35;;;;;;;23.67;7.70;;;;;;;;;;5004456;28;20049;-68
2024/04/06 10:07:03;;;;;;;24.75;7.35;;;;;;;;;;5004418;28;20749;-67
2024/04/06 10:09:32;;;;;;;21.17;6.47;;;;;;;;;;5002164;28;20029;-67
2024/04/06 10:12:03;;;;;;;16.95;4.85;;;;;;;;;;5001493;28;20057;-66
2024/04/06 10:14:30;;;;;;;14.18;4.32;;;;;;;;;;4985988;28;20072;-67
2024/04/06 10:17:13;;;;;;;18.38;4.20;;;;;;;;;;5004616;28;20052;-67
2024/04/06 10:19:45;;;;;;;16.85;3.75;;;;;;;;;;4981591;28;20029;-66
2024/04/06 10:22:13;;;;;;;11.82;2.97;;;;;;;;;;5004733;28;20037;-69
2024/04/06 10:24:41;;;;;;;16.13;3.42;;;;;;;;;;4981181;28;20045;-67
2024/04/06 10:27:16;;;;;;;14.30;3.85;;;;;;;;;;5004679;28;20083;-66
2024/04/06 10:29:43;;;;;;;17.40;3.85;;;;;;;;;;5001545;28;20029;-66
2024/04/06 10:32:09;;;;;;;14.63;3.08;;;;;;;;;;4985593;28;20772;-67
2024/04/06 10:34:35;;;;;;;15.43;3.33;;;;;;;;;;5000652;28;20049;-67
2024/04/06 10:37:04;;;;;;;13.63;3.80;;;;;;;;;;4981984;28;20032;-68
2024/04/06 10:39:32;;;;;;;17.55;4.00;;;;;;;;;;5000676;28;20849;-67
2024/04/06 10:41:58;;;;;;;13.60;4.13;;;;;;;;;;4985539;28;20091;-67
2024/04/06 10:44:24;;;;;;;14.88;4.40;;;;;;;;;;4999637;28;20029;-67
2024/04/06 10:46:51;;;;;;;17.98;4.85;;;;;;;;;;4981663;28;20968;-68
2024/04/06 10:49:20;;;;;;;15.93;4.18;;;;;;;;;;5002568;28;20033;-68
2024/04/06 10:51:49;;;;;;;16.00;5.35;;;;;;;;;;4997940;28;20029;-68
2024/04/06 10:54:17;;;;;;;14.80;4.40;;;;;;;;;;5004776;28;20407;-67
2024/04/06 10:56:44;;;;;;;13.65;3.65;;;;;;;;;;4982458;28;20029;-68
2024/04/06 10:59:12;;;;;;;14.48;4.53;;;;;;;;;;5002381;28;20459;-67
2024/04/06 11:01:40;;;;;;;17.00;4.30;;;;;;;;;;5000219;28;20047;-67
2024/04/06 11:04:06;;;;;;;14.70;4.13;;;;;;;;;;5004036;28;20051;-70
2024/04/06 11:06:32;;;;;;;17.20;4.28;;;;;;;;;;4996894;28;20057;-68
2024/04/06 11:09:02;;;;;;;17.23;3.90;;;;;;;;;;5003581;28;20391;-68
2024/04/06 11:11:31;;;;;;;14.93;3.65;;;;;;;;;;5003842;28;20484;-68
2024/04/06 11:13:57;;;;;;;16.33;3.80;;;;;;;;;;4985647;28;20036;-67
2024/04/06 11:16:27;;;;;;;16.27;3.50;;;;;;;;;;4985401;28;20041;-67
2024/04/06 11:18:55;;;;;;;14.23;3.45;;;;;;;;;;4981921;28;20033;-68
2024/04/06 11:21:22;;;;;;;18.08;4.07;;;;;;;;;;4984955;28;20156;-67
2024/04/06 11:23:52;;;;;;;15.18;3.70;;;;;;;;;;4999728;28;20568;-67
2024/04/06 11:26:22;;;;;;;16.60;3.58;;;;;;;;;;5004203;28;20037;-67
2024/04/06 11:28:49;;;;;;;14.75;4.03;;;;;;;;;;5000002;28;20082;-67
2024/04/06 11:31:19;;;;;;;16.13;3.70;;;;;;;;;;5004320;28;20483;-67
2024/04/06 11:33:47;;;;;;;15.45;4.20;;;;;;;;;;4998505;28;20033;-67
2024/04/06 11:36:13;;;;;;;15.95;4.55;;;;;;;;;;4979444;28;20033;-67
2024/04/06 11:38:39;;;;;;;16.70;4.20;;;;;;;;;;4981331;28;20136;-67
2024/04/06 11:41:05;;;;;;;17.83;4.22;;;;;;;;;;4985366;28;20182;-67
2024/04/06 11:43:33;;;;;;;15.18;3.97;;;;;;;;;;4981091;28;20647;-68
2024/04/06 11:45:59;;;;;;;14.95;3.40;;;;;;;;;;5003754;28;20038;-68
2024/04/06 11:48:27;;;;;;;13.60;3.75;;;;;;;;;;5001113;28;20453;-68
2024/04/06 11:50:54;;;;;;;16.50;4.05;;;;;;;;;;4998293;28;20025;-68
2024/04/06 11:53:24;;;;;;;13.80;4.18;;;;;;;;;;5002886;28;20037;-67
2024/04/06 11:55:53;;;;;;;18.83;4.40;;;;;;;;;;4999552;28;23342;-69
2024/04/06 11:58:24;;;;;;;14.43;3.78;;;;;;;;;;4985317;28;20526;-66
2024/04/06 12:00:52;;;;;;;15.50;3.22;;;;;;;;;;4999330;28;20042;-68
2024/04/06 12:03:20;;;;;;;13.35;3.35;;;;;;;;;;5001987;28;20851;-68
2024/04/06 12:05:47;;;;;;;14.65;3.33;;;;;;;;;;4998774;28;20091;-67
2024/04/06 12:08:16;;;;;;;16.73;3.92;;;;;;;;;;5001478;28;20069;-67
2024/04/06 12:10:46;;;;;;;16.58;3.45;;;;;;;;;;4975015;28;20037;-68
2024/04/06 12:13:14;;;;;;;14.32;3.40;;;;;;;;;;4982484;28;20065;-68
2024/04/06 12:15:41;;;;;;;19.98;3.75;;;;;;;;;;4992655;28;20040;-68
2024/04/06 12:18:09;;;;;;;18.27;3.92;;;;;;;;;;4981204;28;20037;-68
2024/04/06 12:20:37;;;;;;;12.35;3.40;;;;;;;;;;4997462;28;20037;-68
2024/04/06 12:23:04;;;;;;;14.05;2.88;;;;;;;;;;4981990;28;20954;-67
2024/04/06 12:25:31;;;;;;;15.05;3.42;;;;;;;;;;4981657;28;20048;-67
2024/04/06 12:30:34;;;;;;;13.68;3.60;;;;;;;;;;5014082;23;20058;-77
2024/04/06 12:33:01;;;;;;;19.20;3.58;;;;;;;;;;5017586;28;20114;-78
2024/04/06 12:35:28;;;;;;;21.25;3.58;;;;;;;;;;5018787;28;20253;-79
2024/04/06 12:37:57;;;;;;;13.30;3.10;;;;;;;;;;5016300;28;20108;-79
2024/04/06 12:40:27;;;;;;;16.20;3.70;;;;;;;;;;5016354;28;20048;-78
2024/04/06 12:42:54;;;;;;;14.07;3.65;;;;;;;;;;4999102;28;20021;-79
2024/04/06 12:45:20;;;;;;;16.40;3.20;;;;;;;;;;5019911;28;20098;-79
2024/04/06 12:47:49;;;;;;;9.95;2.90;;;;;;;;;;5014545;28;20029;-79
2024/04/06 12:50:21;;;;;;;17.15;3.25;;;;;;;;;;5022894;28;20029;-79
2024/04/06 12:52:49;;;;;;;13.02;3.40;;;;;;;;;;5016792;28;20049;-78
2024/04/06 12:55:21;;;;;;;15.18;3.38;;;;;;;;;;5005245;28;20037;-77
2024/04/06 12:57:49;;;;;;;17.83;3.50;;;;;;;;;;5021543;28;20025;-79
2024/04/06 13:00:16;;;;;;;15.77;3.67;;;;;;;;;;5000468;28;20033;-79
2024/04/06 13:02:50;;;;;;;18.70;3.50;;;;;;;;;;5000017;28;20029;-78
2024/04/06 13:05:24;;;;;;;17.13;3.57;;;;;;;;;;4996801;28;20151;-79
2024/04/06 13:07:52;;;;;;;18.00;3.58;;;;;;;;;;5021762;28;20048;-79
2024/04/06 13:10:18;;;;;;;12.73;3.10;;;;;;;;;;5002887;28;20046;-78
2024/04/06 13:12:47;;;;;;;11.63;2.70;;;;;;;;;;4998883;28;20029;-78
2024/04/06 13:15:14;;;;;;;15.60;3.05;;;;;;;;;;5006151;28;20083;-79
2024/04/06 13:17:51;;;;;;;14.93;2.97;;;;;;;;;;5003516;28;20527;-79
2024/04/06 13:20:25;;;;;;;14.38;2.83;;;;;;;;;;5006215;28;20051;-80
2024/04/06 13:22:51;;;;;;;;;;;;;;;;;;5022900;28;20025;-79
2024/04/06 13:25:24;;;;;;;17.45;2.95;;;;;;;;;;5024626;28;20575;-81
2024/04/06 13:30:53;;;;;;;12.52;2.60;;;;;;;;;;4971964;28;20045;-79
2024/04/06 13:33:20;;;;;;;16.50;2.75;;;;;;;;;;4989727;28;20554;-81
2024/04/06 13:35:47;;;;;;;14.52;3.05;;;;;;;;;;4997282;28;20080;-78
2024/04/06 13:38:13;;;;;;;15.35;2.80;;;;;;;;;;4992737;28;20048;-80
2024/04/06 13:40:42;;;;;;;15.27;2.67;;;;;;;;;;5003486;28;20030;-79
2024/04/06 13:43:09;;;;;;;11.98;2.60;;;;;;;;;;4989224;28;20025;-79
2024/04/06 13:45:40;;;;;;;20.25;2.90;;;;;;;;;;5001134;28;20022;-79
2024/04/06 13:48:13;;;;;;;17.67;2.70;;;;;;;;;;5007089;28;20793;-88
2024/04/06 13:51:00;;;;;;;18.75;2.65;;;;;;;;;;5010767;28;20053;-89
2024/04/06 13:53:40;;;;;;;17.30;3.25;;;;;;;;;;5010534;28;20041;-85
2024/04/06 13:56:08;;;;;;;13.65;2.80;;;;;;;;;;5017219;28;20184;-83
2024/04/06 13:58:37;;;;;;;14.93;2.80;;;;;;;;;;4999553;28;20046;-83
2024/04/06 14:01:12;;;;;;;15.80;3.00;;;;;;;;;;4999530;28;20045;-83
2024/04/06 14:03:40;;;;;;;20.02;2.97;;;;;;;;;;4999772;28;20037;-84
2024/04/06 14:06:06;;;;;;;14.23;2.60;;;;;;;;;;5000739;28;20136;-85
2024/04/06 14:08:33;;;;;;;14.25;2.83;;;;;;;;;;4997218;28;20060;-85
2024/04/06 14:10:59;;;;;;;15.73;2.78;;;;;;;;;;5009618;28;20527;-84
2024/04/06 14:13:36;;;;;;;14.27;2.55;;;;;;;;;;5018300;28;20044;-86
2024/04/06 14:16:18;;;;;;;;;;;;;;;;;;;;;
2024/04/06 14:18:49;;;;;;;14.70;2.90;;;;;;;;;;5029558;28;20092;-86
2024/04/06 14:21:22;;;;;;;15.38;2.95;;;;;;;;;;5012859;28;20034;-86
2024/04/06 14:23:51;;;;;;;20.13;3.05;;;;;;;;;;5013232;28;20052;-88
2024/04/06 14:26:22;;;;;;;14.57;2.80;;;;;;;;;;5014815;28;20029;-87
2024/04/06 14:28:59;;;;;;;15.15;2.67;;;;;;;;;;5014981;28;20038;-86
2024/04/06 14:31:29;;;;;;;14.90;2.83;;;;;;;;;;5010414;28;20041;-87
2024/04/06 14:33:58;;;;;;;15.98;2.97;;;;;;;;;;5008216;28;20062;-86
2024/04/06 14:36:31;;;;;;;19.25;3.30;;;;;;;;;;5015772;28;20032;-88
2024/04/06 14:38:59;;;;;;;15.45;2.88;;;;;;;;;;5025910;28;20028;-86
2024/04/06 14:41:27;;;;;;;16.98;3.03;;;;;;;;;;5011266;28;20039;-86
2024/04/06 14:43:54;;;;;;;15.18;2.95;;;;;;;;;;5003777;28;20030;-87
2024/04/06 14:46:26;;;;;;;15.75;3.22;;;;;;;;;;5010693;28;20136;-87
2024/04/06 14:48:53;;;;;;;16.77;3.08;;;;;;;;;;5027919;28;20024;-88